Time;durP1;ratioP1;P1;durP2;ratioP2;P2;SDS_P1;SDS_P2;PMS_P1;PMS_P2;Temp;Humidity;BMP_temperature;BMP_pressure;BME280_temperature;BME280_humidity;BME280_pressure;Samples;Min_cycle;Max_cycle;Signal;HPM_P1;HPM_P2
2021/10/18 05:43:00;;;;;;;77.07;38.20;;;;;;;;;;5502998;23;20057;-64
2021/10/18 05:45:33;;;;;;;69.50;37.17;;;;;;;;;;5011121;28;20554;-58
2021/10/18 05:48:11;;;;;;;70.15;37.15;;;;;;;;;;5013708;28;20471;-61
2021/10/18 05:51:01;;;;;;;69.25;40.60;;;;;;;;;;5013554;28;20492;-59
2021/10/18 05:53:27;;;;;;;79.60;42.50;;;;;;;;;;5012720;28;20095;-59
2021/10/18 05:55:56;;;;;;;81.82;44.85;;;;;;;;;;5012619;28;20058;-59
2021/10/18 05:58:22;;;;;;;79.53;42.03;;;;;;;;;;4994449;28;20058;-63
2021/10/18 06:00:48;;;;;;;69.30;40.00;;;;;;;;;;5010716;28;20037;-63
2021/10/18 06:03:18;;;;;;;70.10;38.72;;;;;;;;;;5012517;28;20061;-62
2021/10/18 06:05:46;;;;;;;70.07;39.78;;;;;;;;;;5011641;28;20034;-67
2021/10/18 06:08:16;;;;;;;81.95;46.38;;;;;;;;;;5010805;28;20528;-64
2021/10/18 06:10:45;;;;;;;72.68;42.50;;;;;;;;;;5011651;28;20030;-62
2021/10/18 06:13:16;;;;;;;80.43;43.55;;;;;;;;;;5012626;28;20022;-60
2021/10/18 06:15:42;;;;;;;78.07;41.83;;;;;;;;;;5011426;28;20046;-61
2021/10/18 06:18:11;;;;;;;68.28;40.58;;;;;;;;;;4994596;28;20107;-59
2021/10/18 06:20:38;;;;;;;72.68;39.08;;;;;;;;;;4978226;28;20022;-60
2021/10/18 06:23:05;;;;;;;71.78;43.47;;;;;;;;;;4993307;28;20025;-62
2021/10/18 06:25:32;;;;;;;81.25;47.13;;;;;;;;;;5010498;28;20033;-65
2021/10/18 06:27:58;;;;;;;83.07;48.10;;;;;;;;;;5003572;28;20049;-65
2021/10/18 06:30:26;;;;;;;68.95;39.75;;;;;;;;;;4993789;28;20041;-64
2021/10/18 06:32:53;;;;;;;60.13;37.08;;;;;;;;;;4994077;28;20681;-68
2021/10/18 06:35:25;;;;;;;60.65;36.88;;;;;;;;;;4994274;28;20034;-60
2021/10/18 06:37:52;;;;;;;56.50;34.85;;;;;;;;;;4994278;28;20038;-65
2021/10/18 06:40:18;;;;;;;55.78;34.40;;;;;;;;;;4994163;28;20030;-64
2021/10/18 06:42:47;;;;;;;55.42;32.35;;;;;;;;;;4993841;28;20038;-66
2021/10/18 06:45:14;;;;;;;55.75;32.70;;;;;;;;;;4994389;28;20056;-63
2021/10/18 06:47:40;;;;;;;53.47;32.80;;;;;;;;;;4994407;28;20065;-63
2021/10/18 06:50:07;;;;;;;51.78;32.63;;;;;;;;;;4977098;28;20026;-66
2021/10/18 06:52:39;;;;;;;54.13;33.25;;;;;;;;;;4994185;28;20033;-66
2021/10/18 06:55:07;;;;;;;53.42;33.88;;;;;;;;;;4976420;28;20038;-65
2021/10/18 06:57:33;;;;;;;59.10;33.78;;;;;;;;;;4976281;28;20158;-64
2021/10/18 06:59:59;;;;;;;57.97;34.90;;;;;;;;;;4976377;28;20026;-64
2021/10/18 07:02:26;;;;;;;60.42;35.88;;;;;;;;;;4976266;28;20437;-65
2021/10/18 07:04:52;;;;;;;62.38;37.30;;;;;;;;;;4993667;28;20035;-62
2021/10/18 07:07:19;;;;;;;60.28;37.92;;;;;;;;;;4993237;28;20031;-67
2021/10/18 07:09:45;;;;;;;60.15;38.70;;;;;;;;;;4993643;28;20033;-67
2021/10/18 07:12:12;;;;;;;61.10;38.03;;;;;;;;;;4993707;28;20586;-65
2021/10/18 07:14:38;;;;;;;66.15;41.42;;;;;;;;;;5033033;28;20037;-63
2021/10/18 07:17:04;;;;;;;67.35;41.35;;;;;;;;;;5032776;28;20388;-65
2021/10/18 07:19:30;;;;;;;63.45;41.42;;;;;;;;;;5005181;28;20038;-68
2021/10/18 07:21:56;;;;;;;119.68;42.75;;;;;;;;;;5012957;28;20025;-67
2021/10/18 07:24:23;;;;;;;62.03;40.72;;;;;;;;;;5016670;28;20048;-64
2021/10/18 07:26:50;;;;;;;66.80;42.05;;;;;;;;;;5018426;28;20026;-66
2021/10/18 07:29:21;;;;;;;68.13;42.22;;;;;;;;;;5024584;28;20435;-65
2021/10/18 07:31:47;;;;;;;68.00;41.65;;;;;;;;;;5032483;28;20069;-64
2021/10/18 07:34:16;;;;;;;64.55;40.55;;;;;;;;;;5033048;28;20033;-65
2021/10/18 07:36:52;;;;;;;63.75;42.08;;;;;;;;;;5006646;28;20443;-61
2021/10/18 07:39:19;;;;;;;66.28;42.63;;;;;;;;;;5011657;28;20168;-69
2021/10/18 07:41:45;;;;;;;68.97;44.20;;;;;;;;;;5012025;28;20045;-67
2021/10/18 07:44:11;;;;;;;65.90;42.15;;;;;;;;;;5011864;28;20077;-69
2021/10/18 07:46:37;;;;;;;68.85;42.35;;;;;;;;;;5011901;28;20133;-64
2021/10/18 07:49:03;;;;;;;66.15;42.00;;;;;;;;;;5013178;28;20071;-65
2021/10/18 07:51:30;;;;;;;66.18;40.25;;;;;;;;;;5011435;28;20079;-65
2021/10/18 07:53:56;;;;;;;62.28;40.65;;;;;;;;;;5012374;28;20033;-66
2021/10/18 07:56:22;;;;;;;67.70;41.78;;;;;;;;;;5011932;28;20489;-65
2021/10/18 07:58:48;;;;;;;74.93;48.80;;;;;;;;;;5011016;28;20026;-63
2021/10/18 08:01:14;;;;;;;62.22;41.40;;;;;;;;;;5002793;28;20066;-67
2021/10/18 08:03:41;;;;;;;55.35;38.00;;;;;;;;;;4993901;28;20023;-63
2021/10/18 08:06:07;;;;;;;64.18;38.72;;;;;;;;;;4976356;28;20389;-64
2021/10/18 08:08:34;;;;;;;63.50;39.50;;;;;;;;;;4993718;28;20422;-65
2021/10/18 08:11:00;;;;;;;61.92;40.35;;;;;;;;;;4993770;28;20081;-69
2021/10/18 08:13:26;;;;;;;69.20;39.13;;;;;;;;;;4976134;28;20037;-65
2021/10/18 08:15:52;;;;;;;60.90;39.30;;;;;;;;;;4993472;28;20081;-64
2021/10/18 08:18:19;;;;;;;55.42;34.92;;;;;;;;;;4993584;28;20104;-69
2021/10/18 08:20:45;;;;;;;62.85;39.03;;;;;;;;;;4975485;28;20061;-65
2021/10/18 08:23:11;;;;;;;66.25;40.78;;;;;;;;;;4993473;28;20030;-66
2021/10/18 08:25:37;;;;;;;57.97;35.78;;;;;;;;;;4993431;28;20035;-66
2021/10/18 08:28:03;;;;;;;54.63;33.67;;;;;;;;;;4993323;28;20128;-62
2021/10/18 08:30:29;;;;;;;57.00;34.80;;;;;;;;;;4975843;28;20062;-63
2021/10/18 08:32:55;;;;;;;54.08;33.00;;;;;;;;;;4975615;28;20026;-75
2021/10/18 08:35:22;;;;;;;52.42;33.05;;;;;;;;;;4992681;28;20113;-66
2021/10/18 08:40:47;;;;;;;54.53;33.33;;;;;;;;;;4993543;28;20042;-65
2021/10/18 08:45:43;;;;;;;57.90;33.90;;;;;;;;;;4993110;28;20043;-63
2021/10/18 08:48:09;;;;;;;59.70;35.70;;;;;;;;;;4992950;28;20026;-62
2021/10/18 08:50:36;;;;;;;57.83;37.00;;;;;;;;;;4996195;28;20495;-64
2021/10/18 08:53:03;;;;;;;51.63;31.83;;;;;;;;;;4999304;28;20857;-64
2021/10/18 08:55:29;;;;;;;85.78;46.85;;;;;;;;;;4992834;28;20026;-66
2021/10/18 08:57:56;;;;;;;60.65;35.05;;;;;;;;;;4992918;28;20030;-65
2021/10/18 09:00:42;;;;;;;60.38;35.35;;;;;;;;;;4975218;28;20026;-65
2021/10/18 09:03:19;;;;;;;53.70;33.47;;;;;;;;;;4992786;28;20077;-66
2021/10/18 09:05:46;;;;;;;44.25;27.90;;;;;;;;;;4975162;28;20185;-65
2021/10/18 09:08:31;;;;;;;44.17;27.08;;;;;;;;;;5007153;28;20075;-66
2021/10/18 09:11:06;;;;;;;41.08;27.50;;;;;;;;;;5032155;28;20384;-64
2021/10/18 09:13:32;;;;;;;46.20;29.45;;;;;;;;;;5024244;28;20496;-66
2021/10/18 09:15:58;;;;;;;53.40;31.75;;;;;;;;;;5004003;28;20452;-64
2021/10/18 09:18:24;;;;;;;49.63;29.92;;;;;;;;;;5021116;28;20029;-62
2021/10/18 09:20:51;;;;;;;50.72;33.80;;;;;;;;;;5021401;28;20057;-66
2021/10/18 09:23:27;;;;;;;49.05;31.77;;;;;;;;;;5028359;28;20025;-64
2021/10/18 09:25:58;;;;;;;45.95;29.27;;;;;;;;;;5022153;28;20033;-64
2021/10/18 09:28:25;;;;;;;41.00;25.95;;;;;;;;;;5019722;28;20065;-67
2021/10/18 09:30:52;;;;;;;44.38;26.73;;;;;;;;;;5020906;28;20049;-63
2021/10/18 09:33:27;;;;;;;35.03;23.70;;;;;;;;;;4998100;28;20034;-64
2021/10/18 09:35:54;;;;;;;40.38;24.92;;;;;;;;;;5003029;28;20042;-67
2021/10/18 09:38:21;;;;;;;39.72;26.33;;;;;;;;;;4996741;28;20022;-65
2021/10/18 09:40:51;;;;;;;40.15;26.30;;;;;;;;;;5014588;28;20037;-69
2021/10/18 09:43:43;;;;;;;37.58;24.23;;;;;;;;;;4992153;28;20042;-66
2021/10/18 10:53:12;;;;;;;33.63;19.95;;;;;;;;;;4994106;28;20061;-66
2021/10/18 10:55:39;;;;;;;33.85;20.95;;;;;;;;;;5008742;28;20026;-65
2021/10/18 10:58:32;;;;;;;36.13;21.55;;;;;;;;;;5012921;28;20034;-63
2021/10/18 11:00:59;;;;;;;31.27;19.40;;;;;;;;;;5015278;28;20041;-61
2021/10/18 11:03:35;;;;;;;35.88;22.35;;;;;;;;;;5020375;28;20021;-62
2021/10/18 11:06:03;;;;;;;34.03;21.52;;;;;;;;;;5013792;28;20076;-65
2021/10/18 11:08:32;;;;;;;34.95;20.20;;;;;;;;;;5011886;28;20420;-64
2021/10/18 11:11:17;;;;;;;33.50;17.50;;;;;;;;;;5030180;28;20048;-64
2021/10/18 11:13:43;;;;;;;28.48;16.58;;;;;;;;;;5032392;28;20341;-67
2021/10/18 11:16:10;;;;;;;22.95;12.88;;;;;;;;;;5032178;28;20048;-68
2021/10/18 11:18:36;;;;;;;16.95;10.98;;;;;;;;;;5032483;28;20420;-64
2021/10/18 11:21:12;;;;;;;19.00;12.30;;;;;;;;;;5032102;28;20031;-70
2021/10/18 11:23:54;;;;;;;20.52;12.23;;;;;;;;;;5032083;28;20040;-59
2021/10/18 11:26:20;;;;;;;22.85;15.45;;;;;;;;;;5012832;28;20076;-62
2021/10/18 11:28:47;;;;;;;22.65;13.40;;;;;;;;;;4994798;28;20026;-66
2021/10/18 11:31:13;;;;;;;20.50;12.40;;;;;;;;;;5011486;28;20029;-59
2021/10/18 11:33:39;;;;;;;26.25;13.85;;;;;;;;;;5011348;28;20022;-64
2021/10/18 11:36:18;;;;;;;24.27;13.40;;;;;;;;;;4993003;28;20447;-64
2021/10/18 11:38:45;;;;;;;20.13;13.23;;;;;;;;;;5008564;28;20034;-68
2021/10/18 11:41:11;;;;;;;22.75;14.45;;;;;;;;;;4993790;28;20076;-61
2021/10/18 11:43:37;;;;;;;23.65;15.27;;;;;;;;;;5007621;28;20050;-60
2021/10/18 11:46:03;;;;;;;21.80;14.60;;;;;;;;;;5000027;28;20038;-65
2021/10/18 11:48:30;;;;;;;26.88;15.50;;;;;;;;;;4992510;28;20521;-66
2021/10/18 11:51:00;;;;;;;26.45;15.20;;;;;;;;;;4991999;28;20057;-60
2021/10/18 11:53:28;;;;;;;24.95;15.52;;;;;;;;;;4997957;28;20018;-64
2021/10/18 11:55:58;;;;;;;27.48;15.55;;;;;;;;;;5002142;28;20420;-67
2021/10/18 11:58:28;;;;;;;24.63;15.85;;;;;;;;;;4997647;28;20388;-67
2021/10/18 12:00:58;;;;;;;41.58;25.13;;;;;;;;;;5000506;28;20489;-67
2021/10/18 12:03:24;;;;;;;30.75;17.67;;;;;;;;;;4999204;28;20038;-64
2021/10/18 12:05:54;;;;;;;29.08;17.35;;;;;;;;;;5001380;28;20026;-65
2021/10/18 12:08:21;;;;;;;28.63;17.17;;;;;;;;;;5001486;28;20018;-66
2021/10/18 12:10:48;;;;;;;25.73;16.88;;;;;;;;;;5003801;28;20382;-68
2021/10/18 12:13:27;;;;;;;22.33;13.05;;;;;;;;;;4992035;28;20022;-67
2021/10/18 12:15:54;;;;;;;27.33;14.07;;;;;;;;;;4991589;28;20034;-67
2021/10/18 12:18:21;;;;;;;22.70;13.02;;;;;;;;;;4991654;28;20022;-68
2021/10/18 12:20:48;;;;;;;21.60;11.65;;;;;;;;;;5000577;28;20075;-60
2021/10/18 12:23:19;;;;;;;18.70;10.75;;;;;;;;;;5011214;28;20088;-64
2021/10/18 12:25:59;;;;;;;17.95;9.90;;;;;;;;;;5010966;28;20386;-63
2021/10/18 12:28:27;;;;;;;17.05;9.93;;;;;;;;;;5000641;28;20017;-67
2021/10/18 12:30:53;;;;;;;17.33;10.20;;;;;;;;;;4999705;28;20035;-66
2021/10/18 12:33:20;;;;;;;13.73;8.82;;;;;;;;;;5002104;28;20030;-67
2021/10/18 12:35:58;;;;;;;14.65;9.23;;;;;;;;;;5011994;28;20030;-62
2021/10/18 12:38:28;;;;;;;14.05;7.70;;;;;;;;;;4995313;28;20034;-64
2021/10/18 12:41:06;;;;;;;17.10;9.82;;;;;;;;;;4992046;28;20031;-66
2021/10/18 12:43:32;;;;;;;15.50;7.90;;;;;;;;;;4999465;28;20050;-63
2021/10/18 12:45:58;;;;;;;16.48;9.57;;;;;;;;;;5005302;28;20041;-66
2021/10/18 12:48:25;;;;;;;12.90;8.00;;;;;;;;;;5011397;28;20029;-67
2021/10/18 12:50:51;;;;;;;16.08;9.60;;;;;;;;;;5010566;28;20034;-62
2021/10/18 12:53:27;;;;;;;11.00;6.88;;;;;;;;;;5011015;28;20022;-60
2021/10/18 12:55:55;;;;;;;16.92;10.25;;;;;;;;;;5010779;28;20056;-61
2021/10/18 12:58:22;;;;;;;15.80;7.85;;;;;;;;;;5010523;28;20413;-64
2021/10/18 13:00:48;;;;;;;13.75;8.32;;;;;;;;;;5004385;28;20081;-63
2021/10/18 13:03:14;;;;;;;11.35;6.82;;;;;;;;;;4997541;28;20077;-63
2021/10/18 13:05:50;;;;;;;19.00;10.35;;;;;;;;;;4985894;28;20041;-66
2021/10/18 13:08:19;;;;;;;15.18;8.20;;;;;;;;;;5007862;28;20437;-66
2021/10/18 13:10:47;;;;;;;13.95;7.03;;;;;;;;;;5008304;28;20489;-60
2021/10/18 13:13:14;;;;;;;11.23;6.93;;;;;;;;;;5009575;28;20397;-63
2021/10/18 13:15:41;;;;;;;22.77;9.73;;;;;;;;;;5008961;28;20036;-60
2021/10/18 13:18:08;;;;;;;13.40;7.78;;;;;;;;;;5009493;28;20367;-65
2021/10/18 13:20:34;;;;;;;15.18;7.43;;;;;;;;;;5009883;28;20017;-65
2021/10/18 13:23:01;;;;;;;30.80;14.00;;;;;;;;;;5010525;28;20022;-64
2021/10/18 13:25:29;;;;;;;17.63;8.98;;;;;;;;;;5010450;28;20034;-67
2021/10/18 13:27:55;;;;;;;12.23;5.38;;;;;;;;;;4989790;28;20109;-67
2021/10/18 13:30:22;;;;;;;13.88;5.95;;;;;;;;;;5007066;28;20104;-66
2021/10/18 13:32:49;;;;;;;8.73;5.65;;;;;;;;;;5007986;28;20088;-65
2021/10/18 13:35:16;;;;;;;11.85;6.05;;;;;;;;;;5007830;28;20045;-63
2021/10/18 13:37:42;;;;;;;11.63;5.70;;;;;;;;;;5007754;28;20033;-67
2021/10/18 13:40:10;;;;;;;12.02;5.90;;;;;;;;;;5012445;28;20065;-63
2021/10/18 13:42:36;;;;;;;11.75;6.13;;;;;;;;;;5012970;28;20434;-66
2021/10/18 13:45:03;;;;;;;18.98;9.65;;;;;;;;;;5012237;28;20399;-66
2021/10/18 13:47:29;;;;;;;17.10;9.23;;;;;;;;;;5013069;28;20100;-68
2021/10/18 13:49:55;;;;;;;10.93;5.75;;;;;;;;;;5012644;28;20038;-66
2021/10/18 13:52:22;;;;;;;8.60;4.88;;;;;;;;;;4995697;28;20396;-68
2021/10/18 13:54:50;;;;;;;9.45;5.10;;;;;;;;;;5012780;28;20022;-67
2021/10/18 13:57:17;;;;;;;8.77;5.22;;;;;;;;;;5012984;28;20077;-67
2021/10/18 13:59:45;;;;;;;178.27;45.90;;;;;;;;;;5010052;28;20072;-67
2021/10/18 14:02:13;;;;;;;105.72;30.08;;;;;;;;;;5013046;28;20032;-67
2021/10/18 14:04:40;;;;;;;19.30;7.40;;;;;;;;;;5013142;28;20389;-59
2021/10/18 14:07:06;;;;;;;10.50;5.18;;;;;;;;;;5012807;28;20061;-67
2021/10/18 14:09:32;;;;;;;9.13;4.53;;;;;;;;;;5012346;28;20026;-68
2021/10/18 14:11:58;;;;;;;10.77;5.20;;;;;;;;;;5012632;28;20057;-67
2021/10/18 14:14:24;;;;;;;13.63;6.30;;;;;;;;;;5012462;28;20028;-64
2021/10/18 14:16:50;;;;;;;10.52;5.88;;;;;;;;;;5012264;28;20030;-66
2021/10/18 14:19:16;;;;;;;9.10;5.28;;;;;;;;;;5012278;28;20026;-66
2021/10/18 14:21:42;;;;;;;18.10;8.93;;;;;;;;;;5012147;28;20029;-61
2021/10/18 14:24:08;;;;;;;16.90;7.80;;;;;;;;;;5011970;28;20057;-67
2021/10/18 14:26:36;;;;;;;23.10;9.75;;;;;;;;;;5012144;28;20026;-67
2021/10/18 14:29:02;;;;;;;15.18;7.60;;;;;;;;;;5013432;28;20033;-62
2021/10/18 14:31:29;;;;;;;8.30;4.93;;;;;;;;;;5012901;28;20022;-63
2021/10/18 14:33:55;;;;;;;12.63;7.40;;;;;;;;;;5013533;28;20030;-68
2021/10/18 14:36:21;;;;;;;9.73;5.10;;;;;;;;;;5013853;28;20053;-64
2021/10/18 14:38:54;;;;;;;7.32;4.32;;;;;;;;;;5013323;28;20021;-67
2021/10/18 14:41:20;;;;;;;;;;;;;;;;;;5013225;28;20041;-66
2021/10/18 14:43:46;;;;;;;12.00;6.75;;;;;;;;;;5012971;28;19917;-63
2021/10/18 14:46:12;;;;;;;26.40;11.45;;;;;;;;;;5013092;28;20121;-66
2021/10/18 14:48:38;;;;;;;14.68;6.70;;;;;;;;;;5011960;28;20514;-66
2021/10/18 14:51:04;;;;;;;10.98;5.30;;;;;;;;;;5010899;28;20425;-64
2021/10/18 14:53:30;;;;;;;22.73;12.43;;;;;;;;;;5012912;28;20037;-63
2021/10/18 14:55:56;;;;;;;9.23;5.50;;;;;;;;;;5012652;28;20030;-67
2021/10/18 14:58:22;;;;;;;16.52;8.15;;;;;;;;;;5012749;28;20026;-64
2021/10/18 15:00:48;;;;;;;9.70;5.28;;;;;;;;;;5012967;28;20029;-63
2021/10/18 15:03:14;;;;;;;10.90;5.72;;;;;;;;;;5012110;28;20029;-66
2021/10/18 15:05:41;;;;;;;12.82;6.43;;;;;;;;;;5011689;28;20041;-67
2021/10/18 15:08:07;;;;;;;11.88;6.15;;;;;;;;;;5012436;28;20026;-59
2021/10/18 15:10:33;;;;;;;12.25;6.78;;;;;;;;;;5012315;28;20139;-65
2021/10/18 15:13:01;;;;;;;9.95;5.72;;;;;;;;;;4995158;28;20497;-66
2021/10/18 15:15:28;;;;;;;11.68;6.00;;;;;;;;;;5012390;28;20041;-66
2021/10/18 15:17:55;;;;;;;15.65;7.18;;;;;;;;;;5012539;28;20026;-67
2021/10/18 15:20:22;;;;;;;12.80;5.28;;;;;;;;;;5012452;28;20437;-64
2021/10/18 15:22:48;;;;;;;10.23;6.07;;;;;;;;;;5012284;28;20026;-63
2021/10/18 15:25:15;;;;;;;15.73;7.97;;;;;;;;;;5011349;28;20559;-66
2021/10/18 15:27:41;;;;;;;15.90;8.75;;;;;;;;;;5012041;28;20026;-62
2021/10/18 15:30:09;;;;;;;13.70;7.88;;;;;;;;;;5012069;28;20111;-63
2021/10/18 15:32:36;;;;;;;21.00;13.38;;;;;;;;;;5006176;28;20036;-62
2021/10/18 15:35:03;;;;;;;20.20;9.68;;;;;;;;;;4994432;28;20034;-58
2021/10/18 15:37:31;;;;;;;19.73;11.23;;;;;;;;;;4992137;28;20022;-59
2021/10/18 15:39:58;;;;;;;20.73;10.63;;;;;;;;;;4992467;28;20410;-60
2021/10/18 15:42:24;;;;;;;31.92;15.93;;;;;;;;;;5008949;28;20492;-61
2021/10/18 15:44:50;;;;;;;19.38;11.90;;;;;;;;;;5011091;28;20046;-65
2021/10/18 15:47:21;;;;;;;12.63;7.28;;;;;;;;;;5006575;28;20117;-59
2021/10/18 15:49:47;;;;;;;19.13;10.70;;;;;;;;;;5008782;28;20073;-64
2021/10/18 15:52:13;;;;;;;19.25;9.60;;;;;;;;;;5010600;28;20022;-62
2021/10/18 15:54:39;;;;;;;18.92;10.68;;;;;;;;;;5009595;28;20029;-62
2021/10/18 15:57:07;;;;;;;17.98;9.90;;;;;;;;;;5011867;28;20030;-65
2021/10/18 15:59:33;;;;;;;16.70;10.10;;;;;;;;;;5011842;28;20523;-63
2021/10/18 16:02:00;;;;;;;15.02;8.93;;;;;;;;;;5010902;28;20018;-65
2021/10/18 16:04:26;;;;;;;15.60;9.40;;;;;;;;;;5010171;28;20041;-63
2021/10/18 16:06:52;;;;;;;15.82;9.40;;;;;;;;;;5009796;28;20482;-64
2021/10/18 16:09:18;;;;;;;18.38;9.48;;;;;;;;;;5010105;28;20466;-65
2021/10/18 16:11:45;;;;;;;16.90;8.30;;;;;;;;;;5010387;28;20025;-65
2021/10/18 16:14:11;;;;;;;19.58;9.50;;;;;;;;;;5009696;28;20057;-64
2021/10/18 16:16:40;;;;;;;19.48;10.23;;;;;;;;;;5009105;28;20079;-64
2021/10/18 16:19:07;;;;;;;24.38;14.43;;;;;;;;;;5009800;28;20029;-65
2021/10/18 16:21:33;;;;;;;24.88;10.25;;;;;;;;;;5009515;28;20068;-64
2021/10/18 16:23:59;;;;;;;20.65;11.20;;;;;;;;;;5009878;28;20037;-65
2021/10/18 16:26:26;;;;;;;26.52;11.32;;;;;;;;;;5010182;28;20370;-64
2021/10/18 16:28:52;;;;;;;35.17;16.85;;;;;;;;;;4993061;28;20390;-61
2021/10/18 16:31:18;;;;;;;40.20;20.05;;;;;;;;;;5009915;28;20022;-64
2021/10/18 16:33:44;;;;;;;57.25;25.50;;;;;;;;;;5009830;28;20029;-65
2021/10/18 16:36:10;;;;;;;45.25;20.70;;;;;;;;;;5010045;28;20022;-64
2021/10/18 16:38:36;;;;;;;57.78;25.63;;;;;;;;;;5009953;28;20025;-62
2021/10/18 16:41:03;;;;;;;53.85;23.83;;;;;;;;;;5010172;28;20022;-66
2021/10/18 16:43:29;;;;;;;48.13;22.75;;;;;;;;;;5006985;28;20058;-64
2021/10/18 16:45:55;;;;;;;55.90;23.23;;;;;;;;;;4996875;28;20031;-67
2021/10/18 16:48:21;;;;;;;104.65;40.13;;;;;;;;;;5000194;28;20030;-65
2021/10/18 16:50:47;;;;;;;111.97;41.17;;;;;;;;;;4983346;28;20033;-64
2021/10/18 16:53:16;;;;;;;98.75;37.25;;;;;;;;;;4998946;28;20355;-66
2021/10/18 16:55:42;;;;;;;125.80;44.85;;;;;;;;;;5001740;28;20038;-63
2021/10/18 16:58:08;;;;;;;131.02;48.63;;;;;;;;;;4999243;28;20072;-66
2021/10/18 17:00:35;;;;;;;146.02;53.72;;;;;;;;;;4993518;28;20034;-66
2021/10/18 17:03:01;;;;;;;136.15;51.38;;;;;;;;;;4990047;28;20040;-62
2021/10/18 17:05:27;;;;;;;157.23;63.25;;;;;;;;;;4987349;28;20121;-62
2021/10/18 17:07:53;;;;;;;148.85;55.05;;;;;;;;;;4990564;28;20482;-65
2021/10/18 17:10:21;;;;;;;142.13;56.60;;;;;;;;;;4995816;28;20389;-63
2021/10/18 17:12:47;;;;;;;119.90;49.08;;;;;;;;;;5009398;28;20378;-64
2021/10/18 17:15:13;;;;;;;113.10;48.42;;;;;;;;;;5010341;28;20060;-65
2021/10/18 17:17:39;;;;;;;112.75;47.33;;;;;;;;;;5002815;28;20123;-64
2021/10/18 17:20:06;;;;;;;108.50;45.70;;;;;;;;;;5010007;28;20064;-65
2021/10/18 17:22:33;;;;;;;94.13;43.05;;;;;;;;;;5010603;28;20119;-67
2021/10/18 17:24:59;;;;;;;96.43;39.80;;;;;;;;;;5004758;28;20109;-66
2021/10/18 17:27:26;;;;;;;90.47;39.53;;;;;;;;;;5001022;28;20049;-64
2021/10/18 17:29:52;;;;;;;88.50;38.63;;;;;;;;;;5010335;28;20038;-64
2021/10/18 17:32:18;;;;;;;85.10;40.00;;;;;;;;;;5010577;28;20097;-65
2021/10/18 17:34:47;;;;;;;84.38;37.30;;;;;;;;;;5006300;28;20026;-60
2021/10/18 17:37:13;;;;;;;80.18;37.13;;;;;;;;;;5000512;28;20037;-60
2021/10/18 17:39:43;;;;;;;90.50;38.47;;;;;;;;;;5001330;28;20030;-60
2021/10/18 17:42:09;;;;;;;89.45;36.30;;;;;;;;;;5002753;28;20033;-60
2021/10/18 17:44:35;;;;;;;86.25;38.40;;;;;;;;;;4997825;28;20567;-64
2021/10/18 17:47:02;;;;;;;85.93;39.80;;;;;;;;;;4999160;28;20030;-61
2021/10/18 17:49:28;;;;;;;98.63;44.70;;;;;;;;;;4994800;28;20032;-62
2021/10/18 17:51:54;;;;;;;85.72;41.72;;;;;;;;;;4999883;28;20030;-67
2021/10/18 17:54:20;;;;;;;85.53;38.97;;;;;;;;;;5002073;28;20384;-64
2021/10/18 17:56:48;;;;;;;96.28;40.88;;;;;;;;;;5010294;28;20018;-66
2021/10/18 17:59:14;;;;;;;86.60;40.85;;;;;;;;;;5010742;28;20088;-64
2021/10/18 18:01:40;;;;;;;93.00;42.00;;;;;;;;;;4990948;28;20109;-63
2021/10/18 18:04:06;;;;;;;87.60;41.30;;;;;;;;;;5001925;28;20053;-59
2021/10/18 18:06:34;;;;;;;94.22;43.15;;;;;;;;;;4998762;28;20026;-59
2021/10/18 18:09:00;;;;;;;85.53;41.20;;;;;;;;;;4999271;28;20037;-63
2021/10/18 18:11:26;;;;;;;76.28;39.17;;;;;;;;;;4996489;28;20026;-65
2021/10/18 18:13:55;;;;;;;73.97;37.58;;;;;;;;;;5007048;28;20075;-67
2021/10/18 18:16:21;;;;;;;69.25;35.80;;;;;;;;;;5010006;28;20021;-65
2021/10/18 18:18:47;;;;;;;78.40;38.80;;;;;;;;;;5009870;28;20038;-61
2021/10/18 18:21:13;;;;;;;80.70;40.03;;;;;;;;;;5010423;28;20022;-66
2021/10/18 18:23:39;;;;;;;80.72;38.47;;;;;;;;;;5010179;28;20034;-63
2021/10/18 18:26:05;;;;;;;79.32;38.55;;;;;;;;;;5013665;28;20108;-65
2021/10/18 18:28:34;;;;;;;76.13;39.00;;;;;;;;;;4995639;28;20030;-67
2021/10/18 18:31:02;;;;;;;79.50;38.78;;;;;;;;;;5013673;28;20022;-65
2021/10/18 18:33:29;;;;;;;80.80;40.60;;;;;;;;;;4995391;28;20093;-63
2021/10/18 18:35:55;;;;;;;82.50;40.03;;;;;;;;;;4993704;28;20030;-63
2021/10/18 18:38:22;;;;;;;84.22;40.92;;;;;;;;;;4993978;28;20025;-64
2021/10/18 18:40:48;;;;;;;76.35;40.63;;;;;;;;;;4993572;28;20563;-65
2021/10/18 18:43:14;;;;;;;73.60;38.70;;;;;;;;;;4998827;28;20128;-65
2021/10/18 18:45:40;;;;;;;74.30;38.17;;;;;;;;;;5013292;28;20038;-65
2021/10/18 18:48:06;;;;;;;71.55;36.85;;;;;;;;;;5013161;28;20063;-63
2021/10/18 18:50:32;;;;;;;78.53;35.58;;;;;;;;;;5013143;28;20033;-63
2021/10/18 18:52:59;;;;;;;71.25;36.38;;;;;;;;;;4995448;28;20018;-64
2021/10/18 18:55:25;;;;;;;72.30;37.05;;;;;;;;;;5013423;28;20030;-64
2021/10/18 18:57:51;;;;;;;75.20;37.75;;;;;;;;;;4995839;28;20048;-62
2021/10/18 19:00:18;;;;;;;76.95;39.35;;;;;;;;;;4979378;28;20032;-64
2021/10/18 19:02:44;;;;;;;78.20;38.05;;;;;;;;;;4995292;28;20139;-63
2021/10/18 19:05:14;;;;;;;71.40;37.25;;;;;;;;;;5013379;28;20045;-62
2021/10/18 19:07:41;;;;;;;84.43;43.53;;;;;;;;;;5009263;28;20029;-62
2021/10/18 19:10:07;;;;;;;76.78;40.45;;;;;;;;;;5028983;28;20029;-63
2021/10/18 19:12:33;;;;;;;77.85;40.38;;;;;;;;;;5032750;28;20116;-62
2021/10/18 19:15:00;;;;;;;76.50;40.13;;;;;;;;;;5032567;28;20030;-63
2021/10/18 19:17:26;;;;;;;87.05;44.20;;;;;;;;;;5032656;28;20026;-64
2021/10/18 19:19:52;;;;;;;100.55;49.50;;;;;;;;;;5032274;28;20033;-63
2021/10/18 19:22:18;;;;;;;126.05;62.83;;;;;;;;;;5032539;28;20025;-64
2021/10/18 19:24:44;;;;;;;108.30;57.83;;;;;;;;;;5032477;28;20385;-65
2021/10/18 19:27:10;;;;;;;101.53;52.55;;;;;;;;;;5032657;28;20029;-61
2021/10/18 19:29:37;;;;;;;93.38;49.85;;;;;;;;;;5014161;28;20045;-63
2021/10/18 19:32:04;;;;;;;96.03;48.58;;;;;;;;;;5014131;28;20037;-63
2021/10/18 19:34:30;;;;;;;167.88;88.95;;;;;;;;;;5032158;28;20030;-63
2021/10/18 19:36:56;;;;;;;130.43;69.38;;;;;;;;;;5031511;28;20030;-63
2021/10/18 19:39:22;;;;;;;110.30;52.95;;;;;;;;;;5031874;28;20099;-62
2021/10/18 19:41:49;;;;;;;110.75;54.28;;;;;;;;;;5031829;28;20095;-63
2021/10/18 19:44:16;;;;;;;122.38;60.72;;;;;;;;;;5031357;28;20463;-63
2021/10/18 19:46:42;;;;;;;126.80;63.38;;;;;;;;;;5014100;28;20087;-60
2021/10/18 19:49:08;;;;;;;119.57;61.90;;;;;;;;;;5031926;28;20500;-62
2021/10/18 19:51:34;;;;;;;124.85;60.80;;;;;;;;;;5031764;28;20032;-62
2021/10/18 19:54:01;;;;;;;114.47;58.20;;;;;;;;;;5031903;28;20112;-66
2021/10/18 19:56:27;;;;;;;99.22;52.90;;;;;;;;;;5031262;28;20021;-63
2021/10/18 19:58:53;;;;;;;123.85;61.33;;;;;;;;;;5017211;28;20042;-58
2021/10/18 20:01:21;;;;;;;113.75;58.10;;;;;;;;;;5011775;28;20022;-63
2021/10/18 20:03:47;;;;;;;114.68;58.40;;;;;;;;;;4994560;28;20134;-62
2021/10/18 20:06:13;;;;;;;112.93;56.75;;;;;;;;;;5011761;28;20124;-61
2021/10/18 20:08:42;;;;;;;119.20;60.05;;;;;;;;;;5011399;28;20053;-60
2021/10/18 20:11:08;;;;;;;120.10;62.03;;;;;;;;;;5011889;28;20105;-66
2021/10/18 20:13:35;;;;;;;124.85;63.05;;;;;;;;;;5011380;28;20040;-63
2021/10/18 20:16:01;;;;;;;123.70;62.58;;;;;;;;;;5011749;28;20018;-64
2021/10/18 20:18:28;;;;;;;116.88;61.00;;;;;;;;;;5011678;28;20142;-63
2021/10/18 20:20:54;;;;;;;118.75;60.97;;;;;;;;;;5011421;28;20113;-64
2021/10/18 20:23:20;;;;;;;119.55;58.15;;;;;;;;;;4994103;28;20021;-63
2021/10/18 20:25:46;;;;;;;115.15;60.03;;;;;;;;;;4993840;28;20444;-63
2021/10/18 20:28:12;;;;;;;119.05;58.83;;;;;;;;;;5006941;28;20027;-63
2021/10/18 20:30:38;;;;;;;109.28;57.20;;;;;;;;;;4992181;28;20092;-66
2021/10/18 20:33:05;;;;;;;116.88;58.22;;;;;;;;;;4991975;28;20397;-64
2021/10/18 20:35:31;;;;;;;109.15;57.67;;;;;;;;;;4991823;28;20025;-59
2021/10/18 20:37:57;;;;;;;102.22;54.47;;;;;;;;;;5009514;28;20025;-64
2021/10/18 20:40:23;;;;;;;105.50;53.78;;;;;;;;;;5010911;28;20041;-59
2021/10/18 20:42:49;;;;;;;104.38;53.65;;;;;;;;;;5010671;28;20026;-62
2021/10/18 20:45:15;;;;;;;101.38;51.53;;;;;;;;;;5010946;28;20354;-60
2021/10/18 20:47:41;;;;;;;105.35;54.63;;;;;;;;;;5010233;28;20080;-61
2021/10/18 20:50:07;;;;;;;105.63;53.83;;;;;;;;;;5010940;28;20026;-60
2021/10/18 20:52:33;;;;;;;103.18;52.90;;;;;;;;;;5010982;28;20129;-60
2021/10/18 20:54:59;;;;;;;103.03;53.15;;;;;;;;;;5010730;28;20026;-63
2021/10/18 20:57:25;;;;;;;105.07;54.90;;;;;;;;;;5010897;28;20029;-62
2021/10/18 20:59:51;;;;;;;102.22;51.25;;;;;;;;;;5011006;28;20030;-64
2021/10/18 21:02:17;;;;;;;107.47;54.72;;;;;;;;;;5010902;28;20109;-64
2021/10/18 21:04:44;;;;;;;105.13;54.00;;;;;;;;;;5010446;28;20034;-64
2021/10/18 21:07:10;;;;;;;96.20;52.58;;;;;;;;;;5010609;28;20029;-61
2021/10/18 21:09:36;;;;;;;103.88;54.67;;;;;;;;;;5010881;28;20068;-63
2021/10/18 21:12:02;;;;;;;98.95;51.45;;;;;;;;;;5010485;28;20034;-64
2021/10/18 21:14:29;;;;;;;96.95;50.15;;;;;;;;;;5010132;28;20026;-64